Latest Weather Observations for Little Bay

IDN60801

Issued at 8:03 pm EST Thursday 29 September 2016 (issued every 30 minutes, with the page automatically refreshed every 10 minutes)

About weather observations | Map of weather stations | Latest weather observations for NSW | Other Formats
Station Details ID: 066051 Name: LITTLE BAY (THE COAST GOLF CLUB) Lat: -33.98 Lon: 151.25 Height: 22.0 m
Data from the previous 72 hours. | See also: Recent months for locations in New South Wales
Date/Time
EST
Temp
°C
App
Temp
°C
Dew
Point
°C
Rel
Hum
%
Delta-T
°C
Wind Press
QNH
hPa
Press
MSL
hPa
Rain since
9am
mm
Dir  Spd
km/h
Gust
km/h
Spd
kts
Gust
kts
29/08:00pm - - - - - NW 17 32 9 17 - - -
29/07:30pm - - - - - NW 13 24 7 13 - - -
29/07:00pm - - - - - NW 15 26 8 14 - - -
29/06:30pm - - - - - NW 15 33 8 18 - - -
29/06:00pm - - - - - WNW 19 37 10 20 - - -
29/05:30pm - - - - - WNW 20 37 11 20 - - -
29/05:00pm - - - - - NW 22 37 12 20 - - -
29/04:30pm - - - - - N 17 26 9 14 - - -
29/04:00pm - - - - - NNE 26 39 14 21 - - -
29/03:30pm - - - - - NNE 22 32 12 17 - - -
29/03:00pm - - - - - N 17 30 9 16 - - -
29/02:30pm - - - - - NNE 22 35 12 19 - - -
29/02:00pm - - - - - N 20 30 11 16 - - -
29/01:30pm - - - - - N 24 35 13 19 - - -
29/01:00pm - - - - - N 24 35 13 19 - - -
29/12:30pm - - - - - N 26 39 14 21 - - -
29/12:00pm - - - - - N 24 37 13 20 - - -
29/11:30am - - - - - N 24 35 13 19 - - -
29/11:00am - - - - - N 22 33 12 18 - - -
29/10:30am - - - - - N 20 28 11 15 - - -
29/10:00am - - - - - N 22 33 12 18 - - -
29/09:30am - - - - - N 19 28 10 15 - - -
29/09:00am - - - - - N 17 24 9 13 - - -
29/08:30am - - - - - NNE 28 39 15 21 - - -
29/08:00am - - - - - NNE 24 35 13 19 - - -
29/07:30am - - - - - NNW 11 22 6 12 - - -
29/07:00am - - - - - NNE 20 32 11 17 - - -
29/06:30am - - - - - N 20 33 11 18 - - -
29/06:00am - - - - - NNW 19 30 10 16 - - -
29/05:30am - - - - - N 20 32 11 17 - - -
29/05:18am - - - - - N 28 46 15 25 - - -
29/05:00am - - - - - NNE 37 48 20 26 - - -
29/04:30am - - - - - NNE 30 39 16 21 - - -
29/04:00am - - - - - NNE 26 41 14 22 - - -
29/03:30am - - - - - N 19 28 10 15 - - -
29/03:00am - - - - - N 20 32 11 17 - - -
29/02:30am - - - - - N 20 37 11 20 - - -
29/02:00am - - - - - NW 9 17 5 9 - - -
29/01:30am - - - - - N 17 28 9 15 - - -
29/01:00am - - - - - N 19 28 10 15 - - -
29/12:30am - - - - - N 24 35 13 19 - - -
29/12:00am - - - - - NNE 30 44 16 24 - - -
 
Date/Time
EST
Temp
°C
App
Temp
°C
Dew
Point
°C
Rel
Hum
%
Delta-T
°C
Wind Press
QNH
hPa
Press
MSL
hPa
Rain since
9am
mm
Dir  Spd
km/h
Gust
km/h
Spd
kts
Gust
kts
28/11:30pm - - - - - NNE 24 37 13 20 - - -
28/11:00pm - - - - - NNE 26 37 14 20 - - -
28/10:30pm - - - - - NNE 26 39 14 21 - - -
28/10:00pm - - - - - NNE 30 41 16 22 - - -
28/09:30pm - - - - - NNE 26 37 14 20 - - -
28/09:00pm - - - - - NNE 26 35 14 19 - - -
28/08:30pm - - - - - NNE 24 30 13 16 - - -
28/08:00pm - - - - - NE 22 32 12 17 - - -
28/07:30pm - - - - - NE 19 26 10 14 - - -
28/07:00pm - - - - - NE 20 28 11 15 - - -
28/06:30pm - - - - - NE 17 24 9 13 - - -
28/06:00pm - - - - - NE 17 24 9 13 - - -
28/05:30pm - - - - - ENE 15 20 8 11 - - -
28/05:00pm - - - - - ENE 17 20 9 11 - - -
28/04:30pm - - - - - ENE 13 20 7 11 - - -
28/04:00pm - - - - - ENE 15 20 8 11 - - -
28/03:30pm - - - - - E 13 17 7 9 - - -
28/03:00pm - - - - - E 13 17 7 9 - - -
28/02:30pm - - - - - ESE 13 17 7 9 - - -
28/02:00pm - - - - - ESE 11 15 6 8 - - -
28/01:30pm - - - - - ESE 9 13 5 7 - - -
28/01:00pm - - - - - SE 11 19 6 10 - - -
28/12:30pm - - - - - SE 11 15 6 8 - - -
28/12:00pm - - - - - SE 11 17 6 9 - - -
28/11:30am - - - - - SSE 9 15 5 8 - - -
28/11:00am - - - - - S 13 19 7 10 - - -
28/10:30am - - - - - S 13 20 7 11 - - -
28/10:00am - - - - - SSW 13 19 7 10 - - -
28/09:30am - - - - - WSW 9 15 5 8 - - -
28/09:00am - - - - - W 9 15 5 8 - - -
28/08:30am - - - - - W 15 20 8 11 - - -
28/08:00am - - - - - W 19 22 10 12 - - -
28/07:30am - - - - - W 17 22 9 12 - - -
28/07:00am - - - - - W 17 20 9 11 - - -
28/06:30am - - - - - W 17 20 9 11 - - -
28/06:00am - - - - - W 17 22 9 12 - - -
28/05:30am - - - - - W 17 22 9 12 - - -
28/05:00am - - - - - WSW 17 24 9 13 - - -
28/04:30am - - - - - W 17 24 9 13 - - -
28/04:00am - - - - - W 17 26 9 14 - - -
28/03:30am - - - - - WSW 19 26 10 14 - - -
28/03:00am - - - - - WSW 19 28 10 15 - - -
28/02:30am - - - - - WSW 20 26 11 14 - - -
28/02:00am - - - - - WSW 17 26 9 14 - - -
28/01:30am - - - - - WSW 17 24 9 13 - - -
28/01:00am - - - - - WSW 17 26 9 14 - - -
28/12:30am - - - - - WSW 17 26 9 14 - - -
28/12:00am - - - - - WSW 13 22 7 12 - - -
 
Date/Time
EST
Temp
°C
App
Temp
°C
Dew
Point
°C
Rel
Hum
%
Delta-T
°C
Wind Press
QNH
hPa
Press
MSL
hPa
Rain since
9am
mm
Dir  Spd
km/h
Gust
km/h
Spd
kts
Gust
kts
27/11:30pm - - - - - WSW 9 15 5 8 - - -
27/11:00pm - - - - - SW 11 20 6 11 - - -
27/10:30pm - - - - - SW 9 15 5 8 - - -
27/10:00pm - - - - - SW 13 20 7 11 - - -
27/09:30pm - - - - - SW 9 15 5 8 - - -
27/09:00pm - - - - - SW 9 15 5 8 - - -
27/08:30pm - - - - - SW 11 19 6 10 - - -
27/08:00pm - - - - - SW 19 33 10 18 - - -
27/07:30pm - - - - - SW 17 26 9 14 - - -
27/07:00pm - - - - - WSW 13 24 7 13 - - -
27/06:30pm - - - - - SW 15 20 8 11 - - -
27/06:00pm - - - - - SW 19 32 10 17 - - -
27/05:30pm - - - - - WSW 24 37 13 20 - - -
27/05:00pm - - - - - WSW 30 48 16 26 - - -
27/04:41pm - - - - - WSW 28 46 15 25 - - -
27/04:30pm - - - - - WSW 28 41 15 22 - - -
27/04:00pm - - - - - SW 28 50 15 27 - - -
27/03:38pm - - - - - SW 28 46 15 25 - - -
27/03:30pm - - - - - SW 28 41 15 22 - - -
27/03:19pm - - - - - SW 28 48 15 26 - - -
27/03:00pm - - - - - SW 24 44 13 24 - - -
27/02:48pm - - - - - SW 28 48 15 26 - - -
27/02:30pm - - - - - SW 24 35 13 19 - - -
27/02:00pm - - - - - WSW 28 46 15 25 - - -
27/01:56pm - - - - - WSW 28 46 15 25 - - -
27/01:30pm - - - - - WSW 26 43 14 23 - - -
27/01:00pm - - - - - WSW 20 28 11 15 - - -
27/12:30pm - - - - - WSW 20 33 11 18 - - -
27/12:00pm - - - - - WSW 17 35 9 19 - - -
27/11:30am - - - - - W 13 20 7 11 - - -
27/11:00am - - - - - NW 11 24 6 13 - - -
27/10:30am - - - - - N 17 28 9 15 - - -
27/10:00am - - - - - NNE 20 30 11 16 - - -
27/09:30am - - - - - N 19 26 10 14 - - -
27/09:00am - - - - - NNW 13 20 7 11 - - -
27/08:30am - - - - - NW 6 13 3 7 - - -
27/08:00am - - - - - NNW 15 20 8 11 - - -
27/07:30am - - - - - NW 13 20 7 11 - - -
27/07:00am - - - - - NW 13 20 7 11 - - -
27/06:30am - - - - - NNW 2 9 1 5 - - -
27/06:00am - - - - - CALM 0 0 0 0 - - -
27/05:30am - - - - - CALM 0 2 0 1 - - -
27/05:00am - - - - - WNW 6 9 3 5 - - -
27/04:30am - - - - - WNW 9 15 5 8 - - -
27/04:00am - - - - - NW 9 15 5 8 - - -
27/03:30am - - - - - WNW 9 15 5 8 - - -
27/03:00am - - - - - NW 9 17 5 9 - - -
27/02:30am - - - - - WNW 9 17 5 9 - - -
27/02:00am - - - - - WNW 11 20 6 11 - - -
27/01:30am - - - - - W 11 19 6 10 - - -
27/01:00am - - - - - WSW 7 15 4 8 - - -
27/12:30am - - - - - WSW 11 19 6 10 - - -
27/12:00am - - - - - WNW 9 15 5 8 - - -
 
Date/Time
EST
Temp
°C
App
Temp
°C
Dew
Point
°C
Rel
Hum
%
Delta-T
°C
Wind Press
QNH
hPa
Press
MSL
hPa
Rain since
9am
mm
Dir  Spd
km/h
Gust
km/h
Spd
kts
Gust
kts
26/11:30pm - - - - - WNW 11 17 6 9 - - -
26/11:00pm - - - - - WNW 11 19 6 10 - - -
26/10:30pm - - - - - W 13 24 7 13 - - -
26/10:00pm - - - - - W 11 20 6 11 - - -
26/09:30pm - - - - - WNW 9 15 5 8 - - -
26/09:00pm - - - - - W 9 17 5 9 - - -
26/08:30pm - - - - - W 7 13 4 7 - - -

Other Formats:

Comma delimited format used in spreadsheet applications
http://www.bom.gov.au/fwo/IDN60801/IDN60801.94780.axf

JavaScript Object Notation format (JSON) in row-major order
http://www.bom.gov.au/fwo/IDN60801/IDN60801.94780.json